PWSweather.com
Personal Weather Stations
Station Observations
KB2SBX
Sugarloaf, Sugarloaf, PA 18249

SugarloafSugarloaf, PA 18249

Lat: 41.0126685, Lon: -76.1082041

Elevation: 1030

Station Type: WS-2080

http://sugarloafpaweather.webng.com/weather.shtml

High Low Average
Temperature 40.6°F4.8°C 26.8°F-2.9°C 31.1°F-0.5°C
Dew Point 17.7°F-7.9°C 3.8°F-15.7°C 12.5°F-10.8°C
Winds 6.9 mph 11.1 kmh 0.6 mph 1.0 kmh 3.0 mph S4.8 kmh S
Wind Gusts 15.9 mph25.6 kmh 2.2 mph3.5 kmh 7.0 mph11.3 kmh
Humidity 59% 24% 47%
Pressure 30.22 in1023.4 mb 29.96 in1014.6 mb -
Precipitation 0.01 in0.3 mm - -
Hour Temp Dew Point Humidity Winds Wind Gusts Pressure Precip Precip Rate Daily Precip Total
12:00 AM 28.9°F-1.7°C 14.8°F-9.6°C 55% 2.7 mph ESE4.3 kmh ESE 12.1 mph19.5 kmh 29.95 in1014.2 mb 0.00 in0.0 mm 0.00 in/hr0.0 mm/hr 0.01 in0.3 mm
12:15 AM 28.8°F-1.8°C 15.1°F-9.4°C 56% 2.5 mph E4.0 kmh E 8.3 mph13.4 kmh 29.96 in1014.6 mb 0.00 in0.0 mm 0.00 in/hr0.0 mm/hr 0.01 in0.3 mm
12:30 AM 28.8°F-1.8°C 15.5°F-9.2°C 57% 1.1 mph E1.8 kmh E 4.5 mph7.2 kmh 29.95 in1014.2 mb 0.00 in0.0 mm 0.00 in/hr0.0 mm/hr 0.01 in0.3 mm
12:45 AM 28.6°F-1.9°C 15.3°F-9.3°C 57% 1.0 mph WSW1.6 kmh WSW 3.8 mph6.1 kmh 29.96 in1014.6 mb 0.00 in0.0 mm 0.00 in/hr0.0 mm/hr 0.01 in0.3 mm
01:00 AM 28.6°F-1.9°C 15.3°F-9.3°C 57% 1.6 mph N2.6 kmh N 4.5 mph7.2 kmh 29.96 in1014.6 mb 0.00 in0.0 mm 0.00 in/hr0.0 mm/hr 0.01 in0.3 mm
01:15 AM 28.6°F-1.9°C 15.3°F-9.3°C 57% 1.6 mph N2.6 kmh N 6.9 mph11.1 kmh 29.96 in1014.6 mb 0.00 in0.0 mm 0.00 in/hr0.0 mm/hr 0.00 in0.0 mm
01:30 AM 28.6°F-1.9°C 15.7°F-9.1°C 58% 0.9 mph NE1.4 kmh NE 5.4 mph8.7 kmh 29.97 in1014.9 mb 0.00 in0.0 mm 0.00 in/hr0.0 mm/hr 0.00 in0.0 mm
01:45 AM 28.6°F-1.9°C 15.3°F-9.3°C 57% 0.6 mph SSE1.0 kmh SSE 2.2 mph3.5 kmh 29.97 in1014.9 mb 0.00 in0.0 mm 0.00 in/hr0.0 mm/hr 0.00 in0.0 mm
02:00 AM 28.6°F-1.9°C 15.7°F-9.1°C 58% 2.1 mph ESE3.4 kmh ESE 7.6 mph12.2 kmh 29.97 in1014.9 mb 0.00 in0.0 mm 0.00 in/hr0.0 mm/hr 0.00 in0.0 mm
02:15 AM 28.6°F-1.9°C 16.1°F-8.8°C 59% 2.0 mph NE3.2 kmh NE 6.9 mph11.1 kmh 29.98 in1015.2 mb 0.00 in0.0 mm 0.00 in/hr0.0 mm/hr 0.00 in0.0 mm
02:30 AM 28.8°F-1.8°C 15.9°F-8.9°C 58% 2.9 mph ENE4.7 kmh ENE 7.6 mph12.2 kmh 29.97 in1014.9 mb 0.00 in0.0 mm 0.00 in/hr0.0 mm/hr 0.00 in0.0 mm
02:45 AM 28.8°F-1.8°C 15.5°F-9.2°C 57% 2.5 mph NNW4.0 kmh NNW 6.9 mph11.1 kmh 29.98 in1015.2 mb 0.00 in0.0 mm 0.00 in/hr0.0 mm/hr 0.00 in0.0 mm
03:00 AM 28.6°F-1.9°C 15.7°F-9.1°C 58% 1.7 mph NE2.7 kmh NE 6.0 mph9.7 kmh 29.99 in1015.6 mb 0.00 in0.0 mm 0.00 in/hr0.0 mm/hr 0.00 in0.0 mm
03:15 AM 28.6°F-1.9°C 15.3°F-9.3°C 57% 2.3 mph NNE3.7 kmh NNE 6.9 mph11.1 kmh 29.98 in1015.2 mb 0.00 in0.0 mm 0.00 in/hr0.0 mm/hr 0.00 in0.0 mm
03:30 AM 28.4°F-2.0°C 15.1°F-9.4°C 57% 2.1 mph NNW3.4 kmh NNW 9.2 mph14.8 kmh 29.99 in1015.6 mb 0.00 in0.0 mm 0.00 in/hr0.0 mm/hr 0.00 in0.0 mm
03:45 AM 28.4°F-2.0°C 15.1°F-9.4°C 57% 1.5 mph NW2.4 kmh NW 4.5 mph7.2 kmh 29.99 in1015.6 mb 0.00 in0.0 mm 0.00 in/hr0.0 mm/hr 0.00 in0.0 mm
04:00 AM 28.2°F-2.1°C 13.3°F-10.4°C 53% 3.1 mph NE5.0 kmh NE 9.8 mph15.8 kmh 29.99 in1015.6 mb 0.00 in0.0 mm 0.00 in/hr0.0 mm/hr 0.00 in0.0 mm
04:15 AM 28.2°F-2.1°C 13.7°F-10.2°C 54% 1.0 mph N1.6 kmh N 4.5 mph7.2 kmh 29.99 in1015.6 mb 0.00 in0.0 mm 0.00 in/hr0.0 mm/hr 0.00 in0.0 mm
04:30 AM 28.2°F-2.1°C 13.7°F-10.2°C 54% 1.6 mph NNE2.6 kmh NNE 6.0 mph9.7 kmh 30.00 in1015.9 mb 0.00 in0.0 mm 0.00 in/hr0.0 mm/hr 0.00 in0.0 mm
04:45 AM 28.2°F-2.1°C 14.2°F-9.9°C 55% 1.8 mph NNE2.9 kmh NNE 5.4 mph8.7 kmh 30.00 in1015.9 mb 0.00 in0.0 mm 0.00 in/hr0.0 mm/hr 0.00 in0.0 mm
05:00 AM 28.2°F-2.1°C 14.6°F-9.7°C 56% 0.9 mph WNW1.4 kmh WNW 5.4 mph8.7 kmh 30.01 in1016.3 mb 0.00 in0.0 mm 0.00 in/hr0.0 mm/hr 0.00 in0.0 mm
05:15 AM 28.2°F-2.1°C 14.6°F-9.7°C 56% 1.9 mph N3.1 kmh N 6.0 mph9.7 kmh 30.00 in1015.9 mb 0.00 in0.0 mm 0.00 in/hr0.0 mm/hr 0.00 in0.0 mm
05:30 AM 28.2°F-2.1°C 13.7°F-10.2°C 54% 3.0 mph NE4.8 kmh NE 9.2 mph14.8 kmh 30.01 in1016.3 mb 0.00 in0.0 mm 0.00 in/hr0.0 mm/hr 0.00 in0.0 mm
05:45 AM 27.9°F-2.3°C 13.0°F-10.6°C 53% 4.0 mph N6.4 kmh N 11.4 mph18.3 kmh 30.02 in1016.6 mb 0.00 in0.0 mm 0.00 in/hr0.0 mm/hr 0.00 in0.0 mm
06:00 AM 27.9°F-2.3°C 13.4°F-10.3°C 54% 2.4 mph NE3.9 kmh NE 14.5 mph23.3 kmh 30.02 in1016.6 mb 0.00 in0.0 mm 0.00 in/hr0.0 mm/hr 0.00 in0.0 mm
06:15 AM 27.7°F-2.4°C 13.2°F-10.4°C 54% 1.9 mph NE3.1 kmh NE 6.0 mph9.7 kmh 30.03 in1016.9 mb 0.00 in0.0 mm 0.00 in/hr0.0 mm/hr 0.00 in0.0 mm
06:30 AM 27.7°F-2.4°C 12.8°F-10.7°C 53% 4.1 mph NNW6.6 kmh NNW 13.6 mph21.9 kmh 30.04 in1017.3 mb 0.00 in0.0 mm 0.00 in/hr0.0 mm/hr 0.00 in0.0 mm
06:45 AM 27.3°F-2.6°C 12.1°F-11.1°C 52% 3.3 mph N5.3 kmh N 10.7 mph17.2 kmh 30.04 in1017.3 mb 0.00 in0.0 mm 0.00 in/hr0.0 mm/hr 0.00 in0.0 mm
07:00 AM 27.0°F-2.8°C 11.7°F-11.3°C 52% 2.0 mph NW3.2 kmh NW 7.6 mph12.2 kmh 30.04 in1017.3 mb 0.00 in0.0 mm 0.00 in/hr0.0 mm/hr 0.00 in0.0 mm
07:15 AM 26.8°F-2.9°C 12.4°F-10.9°C 54% 2.0 mph NNW3.2 kmh NNW 5.4 mph8.7 kmh 30.05 in1017.6 mb 0.00 in0.0 mm 0.00 in/hr0.0 mm/hr 0.00 in0.0 mm
07:30 AM 27.0°F-2.8°C 12.2°F-11.0°C 53% 3.7 mph NNW6.0 kmh NNW 11.4 mph18.3 kmh 30.06 in1017.9 mb 0.00 in0.0 mm 0.00 in/hr0.0 mm/hr 0.00 in0.0 mm
07:45 AM 27.0°F-2.8°C 12.2°F-11.0°C 53% 3.2 mph N5.1 kmh N 8.3 mph13.4 kmh 30.06 in1017.9 mb 0.00 in0.0 mm 0.00 in/hr0.0 mm/hr 0.00 in0.0 mm
08:00 AM 26.8°F-2.9°C 11.6°F-11.3°C 52% 3.7 mph NNW6.0 kmh NNW 10.7 mph17.2 kmh 30.06 in1017.9 mb 0.00 in0.0 mm 0.00 in/hr0.0 mm/hr 0.00 in0.0 mm
08:15 AM 26.8°F-2.9°C 12.0°F-11.1°C 53% 1.5 mph E2.4 kmh E 7.6 mph12.2 kmh 30.07 in1018.3 mb 0.00 in0.0 mm 0.00 in/hr0.0 mm/hr 0.00 in0.0 mm
08:30 AM 26.8°F-2.9°C 12.0°F-11.1°C 53% 2.8 mph N4.5 kmh N 6.9 mph11.1 kmh 30.07 in1018.3 mb 0.00 in0.0 mm 0.00 in/hr0.0 mm/hr 0.00 in0.0 mm
08:45 AM 26.8°F-2.9°C 12.4°F-10.9°C 54% 2.7 mph N4.3 kmh N 9.8 mph15.8 kmh 30.08 in1018.6 mb 0.00 in0.0 mm 0.00 in/hr0.0 mm/hr 0.00 in0.0 mm
09:00 AM 26.8°F-2.9°C 12.0°F-11.1°C 53% 3.5 mph NNW5.6 kmh NNW 15.9 mph25.6 kmh 30.09 in1019.0 mb 0.00 in0.0 mm 0.00 in/hr0.0 mm/hr 0.00 in0.0 mm
09:15 AM 26.8°F-2.9°C 12.0°F-11.1°C 53% 2.9 mph NE4.7 kmh NE 10.7 mph17.2 kmh 30.10 in1019.3 mb 0.00 in0.0 mm 0.00 in/hr0.0 mm/hr 0.00 in0.0 mm
09:30 AM 27.1°F-2.7°C 11.9°F-11.2°C 52% 3.8 mph ENE6.1 kmh ENE 11.4 mph18.3 kmh 30.11 in1019.6 mb 0.00 in0.0 mm 0.00 in/hr0.0 mm/hr 0.00 in0.0 mm
05:13 PM 39.0°F3.9°C 7.8°F-13.4°C 27% 2.2 mph N3.5 kmh N 3.8 mph6.1 kmh 30.18 in1022.0 mb 0.00 in0.0 mm 0.00 in/hr0.0 mm/hr 0.00 in0.0 mm
05:14 PM 27.7°F-2.4°C 12.3°F-10.9°C 52% 3.3 mph NNE5.3 kmh NNE 4.5 mph7.2 kmh 30.11 in1019.6 mb 0.00 in0.0 mm 0.00 in/hr0.0 mm/hr 0.00 in0.0 mm
05:15 PM 33.4°F0.8°C 15.3°F-9.3°C 47% 3.8 mph NW6.1 kmh NW 4.5 mph7.2 kmh 30.16 in1021.3 mb 0.00 in0.0 mm 0.00 in/hr0.0 mm/hr 0.00 in0.0 mm
05:30 PM 38.5°F3.6°C 8.2°F-13.2°C 28% 2.9 mph SSW4.7 kmh SSW 8.3 mph13.4 kmh 30.18 in1022.0 mb 0.00 in0.0 mm 0.00 in/hr0.0 mm/hr 0.00 in0.0 mm
05:45 PM 38.1°F3.4°C 7.9°F-13.4°C 28% 3.4 mph E5.5 kmh E 12.1 mph19.5 kmh 30.18 in1022.0 mb 0.00 in0.0 mm 0.00 in/hr0.0 mm/hr 0.00 in0.0 mm
06:00 PM 37.6°F3.1°C 7.5°F-13.6°C 28% 3.0 mph NE4.8 kmh NE 9.8 mph15.8 kmh 30.19 in1022.4 mb 0.00 in0.0 mm 0.00 in/hr0.0 mm/hr 0.00 in0.0 mm
06:15 PM 37.2°F2.9°C 3.8°F-15.7°C 24% 3.0 mph NNW4.8 kmh NNW 6.9 mph11.1 kmh 30.19 in1022.4 mb 0.00 in0.0 mm 0.00 in/hr0.0 mm/hr 0.00 in0.0 mm
06:30 PM 36.5°F2.5°C 4.1°F-15.5°C 25% 2.7 mph NE4.3 kmh NE 7.6 mph12.2 kmh 30.19 in1022.4 mb 0.00 in0.0 mm 0.00 in/hr0.0 mm/hr 0.00 in0.0 mm
06:45 PM 35.6°F2.0°C 4.1°F-15.5°C 26% 1.2 mph N1.9 kmh N 5.4 mph8.7 kmh 30.19 in1022.4 mb 0.00 in0.0 mm 0.00 in/hr0.0 mm/hr 0.00 in0.0 mm
07:00 PM 34.7°F1.5°C 5.7°F-14.6°C 29% 2.3 mph NW3.7 kmh NW 6.9 mph11.1 kmh 30.20 in1022.7 mb 0.00 in0.0 mm 0.00 in/hr0.0 mm/hr 0.00 in0.0 mm
07:15 PM 34.0°F1.1°C 5.9°F-14.5°C 30% 0.7 mph SSE1.1 kmh SSE 3.1 mph5.0 kmh 30.20 in1022.7 mb 0.00 in0.0 mm 0.00 in/hr0.0 mm/hr 0.00 in0.0 mm
07:30 PM 34.0°F1.1°C 5.9°F-14.5°C 30% 0.6 mph NNW1.0 kmh NNW 3.1 mph5.0 kmh 30.22 in1023.4 mb 0.00 in0.0 mm 0.00 in/hr0.0 mm/hr 0.00 in0.0 mm
07:45 PM 33.3°F0.7°C 6.6°F-14.1°C 32% 0.6 mph SW1.0 kmh SW 3.1 mph5.0 kmh 30.23 in1023.7 mb 0.00 in0.0 mm 0.00 in/hr0.0 mm/hr 0.00 in0.0 mm
08:00 PM 32.9°F0.5°C 6.3°F-14.3°C 32% 1.0 mph E1.6 kmh E 3.1 mph5.0 kmh 30.22 in1023.4 mb 0.00 in0.0 mm 0.00 in/hr0.0 mm/hr 0.00 in0.0 mm
08:15 PM 32.2°F0.1°C 7.6°F-13.6°C 35% 0.3 mph SE0.5 kmh SE 2.2 mph3.5 kmh 30.22 in1023.4 mb 0.00 in0.0 mm 0.00 in/hr0.0 mm/hr 0.00 in0.0 mm
08:30 PM 31.3°F-0.4°C 7.5°F-13.6°C 36% 0.3 mph WSW0.5 kmh WSW 3.1 mph5.0 kmh 30.22 in1023.4 mb 0.00 in0.0 mm 0.00 in/hr0.0 mm/hr 0.00 in0.0 mm
08:45 PM 30.6°F-0.8°C 9.7°F-12.4°C 41% 0.2 mph N0.3 kmh N 2.2 mph3.5 kmh 30.22 in1023.4 mb 0.00 in0.0 mm 0.00 in/hr0.0 mm/hr 0.00 in0.0 mm
09:00 PM 29.8°F-1.2°C 9.6°F-12.4°C 42% 0.5 mph N0.8 kmh N 3.8 mph6.1 kmh 30.24 in1024.0 mb 0.00 in0.0 mm 0.00 in/hr0.0 mm/hr 0.00 in0.0 mm
09:15 PM 29.1°F-1.6°C 10.0°F-12.2°C 44% 0.6 mph NNW1.0 kmh NNW 3.1 mph5.0 kmh 30.24 in1024.0 mb 0.00 in0.0 mm 0.00 in/hr0.0 mm/hr 0.00 in0.0 mm
09:30 PM 28.8°F-1.8°C 9.6°F-12.4°C 44% 0.1 mph NE0.2 kmh NE 3.1 mph5.0 kmh 30.25 in1024.4 mb 0.00 in0.0 mm 0.00 in/hr0.0 mm/hr 0.00 in0.0 mm
09:45 PM 28.0°F-2.2°C 8.0°F-13.3°C 42% 0.3 mph N0.5 kmh N 2.2 mph3.5 kmh 30.25 in1024.4 mb 0.00 in0.0 mm 0.00 in/hr0.0 mm/hr 0.00 in0.0 mm
10:00 PM 27.3°F-2.6°C 7.3°F-13.7°C 42% 0.2 mph NNW0.3 kmh NNW 3.1 mph5.0 kmh 30.26 in1024.7 mb 0.00 in0.0 mm 0.00 in/hr0.0 mm/hr 0.00 in0.0 mm
10:15 PM 27.0°F-2.8°C 9.0°F-12.8°C 46% 0.4 mph NE0.6 kmh NE 2.2 mph3.5 kmh 30.25 in1024.4 mb 0.00 in0.0 mm 0.00 in/hr0.0 mm/hr 0.00 in0.0 mm
10:30 PM 26.8°F-2.9°C 9.3°F-12.6°C 47% 0.6 mph NE1.0 kmh NE 2.2 mph3.5 kmh 30.25 in1024.4 mb 0.00 in0.0 mm 0.00 in/hr0.0 mm/hr 0.00 in0.0 mm
10:45 PM 26.4°F-3.1°C 9.4°F-12.6°C 48% 0.3 mph NE0.5 kmh NE 1.6 mph2.6 kmh 30.25 in1024.4 mb 0.00 in0.0 mm 0.00 in/hr0.0 mm/hr 0.00 in0.0 mm
11:00 PM 25.7°F-3.5°C 9.2°F-12.7°C 49% Calm Calm -- 30.26 in1024.7 mb 0.00 in0.0 mm 0.00 in/hr0.0 mm/hr 0.00 in0.0 mm
11:15 PM 25.5°F-3.6°C 9.5°F-12.5°C 50% Calm Calm -- 30.25 in1024.4 mb 0.00 in0.0 mm 0.00 in/hr0.0 mm/hr 0.00 in0.0 mm
11:30 PM 25.3°F-3.7°C 8.9°F-12.8°C 49% Calm Calm -- 30.25 in1024.4 mb 0.00 in0.0 mm 0.00 in/hr0.0 mm/hr 0.00 in0.0 mm
11:45 PM 25.2°F-3.8°C 10.1°F-12.2°C 52% 0.7 mph N1.1 kmh N 3.1 mph5.0 kmh 30.25 in1024.4 mb 0.00 in0.0 mm 0.00 in/hr0.0 mm/hr 0.00 in0.0 mm